sensor_id;sensor_type;location;lat;lon;timestamp;P1;durP1;ratioP1;P2;durP2;ratioP2
46881;SDS011;44112;38.408;-122.974;2022-08-21T00:01:36;13.10;;;6.63;;
46881;SDS011;44112;38.408;-122.974;2022-08-21T00:04:05;11.45;;;6.25;;
46881;SDS011;44112;38.408;-122.974;2022-08-21T00:06:32;11.32;;;6.60;;
46881;SDS011;44112;38.408;-122.974;2022-08-21T00:09:00;10.68;;;6.22;;
46881;SDS011;44112;38.408;-122.974;2022-08-21T00:11:30;12.57;;;6.43;;
46881;SDS011;44112;38.408;-122.974;2022-08-21T00:13:57;13.35;;;6.72;;
46881;SDS011;44112;38.408;-122.974;2022-08-21T00:16:24;12.63;;;6.70;;
46881;SDS011;44112;38.408;-122.974;2022-08-21T00:18:50;13.43;;;6.53;;
46881;SDS011;44112;38.408;-122.974;2022-08-21T00:21:17;13.65;;;6.65;;
46881;SDS011;44112;38.408;-122.974;2022-08-21T00:23:43;12.68;;;6.47;;
46881;SDS011;44112;38.408;-122.974;2022-08-21T00:26:10;13.13;;;5.97;;
46881;SDS011;44112;38.408;-122.974;2022-08-21T00:28:37;10.88;;;5.90;;
46881;SDS011;44112;38.408;-122.974;2022-08-21T00:31:04;11.70;;;6.07;;
46881;SDS011;44112;38.408;-122.974;2022-08-21T00:33:31;12.43;;;7.03;;
46881;SDS011;44112;38.408;-122.974;2022-08-21T00:35:59;10.68;;;6.03;;
46881;SDS011;44112;38.408;-122.974;2022-08-21T00:38:26;12.15;;;6.18;;
46881;SDS011;44112;38.408;-122.974;2022-08-21T00:40:53;12.32;;;6.15;;
46881;SDS011;44112;38.408;-122.974;2022-08-21T00:43:27;12.98;;;6.03;;
46881;SDS011;44112;38.408;-122.974;2022-08-21T00:45:56;12.85;;;6.30;;
46881;SDS011;44112;38.408;-122.974;2022-08-21T00:48:24;12.98;;;6.22;;
46881;SDS011;44112;38.408;-122.974;2022-08-21T00:53:27;14.45;;;6.07;;
46881;SDS011;44112;38.408;-122.974;2022-08-21T00:55:56;13.25;;;6.28;;
46881;SDS011;44112;38.408;-122.974;2022-08-21T00:58:23;15.20;;;6.35;;
46881;SDS011;44112;38.408;-122.974;2022-08-21T01:00:53;13.30;;;6.45;;
46881;SDS011;44112;38.408;-122.974;2022-08-21T01:03:21;13.43;;;6.38;;
46881;SDS011;44112;38.408;-122.974;2022-08-21T01:05:49;11.68;;;5.43;;
46881;SDS011;44112;38.408;-122.974;2022-08-21T01:08:17;11.38;;;5.90;;
46881;SDS011;44112;38.408;-122.974;2022-08-21T01:10:45;13.43;;;5.95;;
46881;SDS011;44112;38.408;-122.974;2022-08-21T01:13:14;13.70;;;5.75;;
46881;SDS011;44112;38.408;-122.974;2022-08-21T01:15:44;12.55;;;6.32;;
46881;SDS011;44112;38.408;-122.974;2022-08-21T01:18:13;12.73;;;5.75;;
46881;SDS011;44112;38.408;-122.974;2022-08-21T01:20:44;11.35;;;5.80;;
46881;SDS011;44112;38.408;-122.974;2022-08-21T01:23:26;13.38;;;5.88;;
46881;SDS011;44112;38.408;-122.974;2022-08-21T01:25:52;13.48;;;5.78;;
46881;SDS011;44112;38.408;-122.974;2022-08-21T01:28:19;12.05;;;5.78;;
46881;SDS011;44112;38.408;-122.974;2022-08-21T01:30:47;12.60;;;5.85;;
46881;SDS011;44112;38.408;-122.974;2022-08-21T01:33:17;13.15;;;6.03;;
46881;SDS011;44112;38.408;-122.974;2022-08-21T01:35:45;11.32;;;5.32;;
46881;SDS011;44112;38.408;-122.974;2022-08-21T01:38:12;11.32;;;5.40;;
46881;SDS011;44112;38.408;-122.974;2022-08-21T01:40:39;11.95;;;5.53;;
46881;SDS011;44112;38.408;-122.974;2022-08-21T01:43:05;10.00;;;5.18;;
46881;SDS011;44112;38.408;-122.974;2022-08-21T01:45:31;12.02;;;5.68;;
46881;SDS011;44112;38.408;-122.974;2022-08-21T01:47:58;12.63;;;6.00;;
46881;SDS011;44112;38.408;-122.974;2022-08-21T01:50:25;13.07;;;5.93;;
46881;SDS011;44112;38.408;-122.974;2022-08-21T01:52:52;13.43;;;5.68;;
46881;SDS011;44112;38.408;-122.974;2022-08-21T01:55:19;13.52;;;6.10;;
46881;SDS011;44112;38.408;-122.974;2022-08-21T01:57:47;10.57;;;5.35;;
46881;SDS011;44112;38.408;-122.974;2022-08-21T02:00:15;10.70;;;5.47;;
46881;SDS011;44112;38.408;-122.974;2022-08-21T02:02:43;12.45;;;5.57;;
46881;SDS011;44112;38.408;-122.974;2022-08-21T02:05:11;11.35;;;5.65;;
46881;SDS011;44112;38.408;-122.974;2022-08-21T02:07:39;12.75;;;5.53;;
46881;SDS011;44112;38.408;-122.974;2022-08-21T02:10:08;11.13;;;5.45;;
46881;SDS011;44112;38.408;-122.974;2022-08-21T02:12:36;12.63;;;5.75;;
46881;SDS011;44112;38.408;-122.974;2022-08-21T02:15:03;11.68;;;5.57;;
46881;SDS011;44112;38.408;-122.974;2022-08-21T02:17:39;13.80;;;5.97;;
46881;SDS011;44112;38.408;-122.974;2022-08-21T02:20:08;12.13;;;5.40;;
46881;SDS011;44112;38.408;-122.974;2022-08-21T02:22:36;12.23;;;5.63;;
46881;SDS011;44112;38.408;-122.974;2022-08-21T02:25:03;11.90;;;5.07;;
46881;SDS011;44112;38.408;-122.974;2022-08-21T02:27:36;11.93;;;5.90;;
46881;SDS011;44112;38.408;-122.974;2022-08-21T02:30:11;11.50;;;5.63;;
46881;SDS011;44112;38.408;-122.974;2022-08-21T02:32:41;12.43;;;5.47;;
46881;SDS011;44112;38.408;-122.974;2022-08-21T02:35:09;13.40;;;6.05;;
46881;SDS011;44112;38.408;-122.974;2022-08-21T02:40:16;18.98;;;6.30;;
46881;SDS011;44112;38.408;-122.974;2022-08-21T02:42:44;15.07;;;6.07;;
46881;SDS011;44112;38.408;-122.974;2022-08-21T02:45:11;14.43;;;6.50;;
46881;SDS011;44112;38.408;-122.974;2022-08-21T02:47:39;16.52;;;6.10;;
46881;SDS011;44112;38.408;-122.974;2022-08-21T02:50:12;14.30;;;5.85;;
46881;SDS011;44112;38.408;-122.974;2022-08-21T02:52:39;14.20;;;6.45;;
46881;SDS011;44112;38.408;-122.974;2022-08-21T02:55:05;18.35;;;6.55;;
46881;SDS011;44112;38.408;-122.974;2022-08-21T02:57:32;13.40;;;6.28;;
46881;SDS011;44112;38.408;-122.974;2022-08-21T02:59:58;16.00;;;6.57;;
46881;SDS011;44112;38.408;-122.974;2022-08-21T03:02:25;12.60;;;5.70;;
46881;SDS011;44112;38.408;-122.974;2022-08-21T03:04:51;14.18;;;6.00;;
46881;SDS011;44112;38.408;-122.974;2022-08-21T03:07:18;13.95;;;6.32;;
46881;SDS011;44112;38.408;-122.974;2022-08-21T03:09:44;19.48;;;6.28;;
46881;SDS011;44112;38.408;-122.974;2022-08-21T03:12:12;15.13;;;6.22;;
46881;SDS011;44112;38.408;-122.974;2022-08-21T03:14:38;14.95;;;6.22;;
46881;SDS011;44112;38.408;-122.974;2022-08-21T03:17:06;14.27;;;5.60;;
46881;SDS011;44112;38.408;-122.974;2022-08-21T03:19:32;13.20;;;5.95;;
46881;SDS011;44112;38.408;-122.974;2022-08-21T03:21:59;13.35;;;5.82;;
46881;SDS011;44112;38.408;-122.974;2022-08-21T03:24:26;14.85;;;6.00;;
46881;SDS011;44112;38.408;-122.974;2022-08-21T03:26:52;17.58;;;6.15;;
46881;SDS011;44112;38.408;-122.974;2022-08-21T03:29:18;15.93;;;6.45;;
46881;SDS011;44112;38.408;-122.974;2022-08-21T03:31:45;19.85;;;5.93;;
46881;SDS011;44112;38.408;-122.974;2022-08-21T03:34:12;16.08;;;6.68;;
46881;SDS011;44112;38.408;-122.974;2022-08-21T03:36:39;13.20;;;6.05;;
46881;SDS011;44112;38.408;-122.974;2022-08-21T03:39:05;17.95;;;6.13;;
46881;SDS011;44112;38.408;-122.974;2022-08-21T03:41:32;12.77;;;6.28;;
46881;SDS011;44112;38.408;-122.974;2022-08-21T03:43:58;13.10;;;6.03;;
46881;SDS011;44112;38.408;-122.974;2022-08-21T03:46:25;14.80;;;6.15;;
46881;SDS011;44112;38.408;-122.974;2022-08-21T03:48:51;14.73;;;6.00;;
46881;SDS011;44112;38.408;-122.974;2022-08-21T03:51:18;10.63;;;5.43;;
46881;SDS011;44112;38.408;-122.974;2022-08-21T03:53:45;13.38;;;5.38;;
46881;SDS011;44112;38.408;-122.974;2022-08-21T03:56:11;15.15;;;6.05;;
46881;SDS011;44112;38.408;-122.974;2022-08-21T03:58:38;13.77;;;6.00;;
46881;SDS011;44112;38.408;-122.974;2022-08-21T04:01:04;12.50;;;5.80;;
46881;SDS011;44112;38.408;-122.974;2022-08-21T04:03:31;12.73;;;5.55;;
46881;SDS011;44112;38.408;-122.974;2022-08-21T04:06:00;10.10;;;4.85;;
46881;SDS011;44112;38.408;-122.974;2022-08-21T04:08:27;12.25;;;5.85;;
46881;SDS011;44112;38.408;-122.974;2022-08-21T04:10:54;11.15;;;5.18;;
46881;SDS011;44112;38.408;-122.974;2022-08-21T04:13:23;12.13;;;5.97;;
46881;SDS011;44112;38.408;-122.974;2022-08-21T04:15:51;11.32;;;5.15;;
46881;SDS011;44112;38.408;-122.974;2022-08-21T04:18:19;11.70;;;5.60;;
46881;SDS011;44112;38.408;-122.974;2022-08-21T04:20:46;12.35;;;5.82;;
46881;SDS011;44112;38.408;-122.974;2022-08-21T04:23:17;12.43;;;5.40;;
46881;SDS011;44112;38.408;-122.974;2022-08-21T04:25:44;12.77;;;5.75;;
46881;SDS011;44112;38.408;-122.974;2022-08-21T04:28:11;11.98;;;5.72;;
46881;SDS011;44112;38.408;-122.974;2022-08-21T04:30:38;10.82;;;5.55;;
46881;SDS011;44112;38.408;-122.974;2022-08-21T04:33:05;9.40;;;4.85;;
46881;SDS011;44112;38.408;-122.974;2022-08-21T04:35:31;13.48;;;5.63;;
46881;SDS011;44112;38.408;-122.974;2022-08-21T04:37:58;11.25;;;5.50;;
46881;SDS011;44112;38.408;-122.974;2022-08-21T04:40:25;12.63;;;5.93;;
46881;SDS011;44112;38.408;-122.974;2022-08-21T04:42:54;12.75;;;5.78;;
46881;SDS011;44112;38.408;-122.974;2022-08-21T04:47:55;14.15;;;5.85;;
46881;SDS011;44112;38.408;-122.974;2022-08-21T04:50:28;13.90;;;5.85;;
46881;SDS011;44112;38.408;-122.974;2022-08-21T04:53:18;13.52;;;6.40;;
46881;SDS011;44112;38.408;-122.974;2022-08-21T04:56:06;11.65;;;5.75;;
46881;SDS011;44112;38.408;-122.974;2022-08-21T04:58:37;13.50;;;5.82;;
46881;SDS011;44112;38.408;-122.974;2022-08-21T05:01:06;13.50;;;6.13;;
46881;SDS011;44112;38.408;-122.974;2022-08-21T05:03:36;13.95;;;5.65;;
46881;SDS011;44112;38.408;-122.974;2022-08-21T05:06:04;14.20;;;5.82;;
46881;SDS011;44112;38.408;-122.974;2022-08-21T05:08:35;14.00;;;5.68;;
46881;SDS011;44112;38.408;-122.974;2022-08-21T05:11:03;14.73;;;6.28;;
46881;SDS011;44112;38.408;-122.974;2022-08-21T05:13:32;15.98;;;5.88;;
46881;SDS011;44112;38.408;-122.974;2022-08-21T05:15:58;12.95;;;6.15;;
46881;SDS011;44112;38.408;-122.974;2022-08-21T05:18:26;15.18;;;6.22;;
46881;SDS011;44112;38.408;-122.974;2022-08-21T05:20:52;15.23;;;6.57;;
46881;SDS011;44112;38.408;-122.974;2022-08-21T05:23:18;13.40;;;6.35;;
46881;SDS011;44112;38.408;-122.974;2022-08-21T05:25:46;13.55;;;5.75;;
46881;SDS011;44112;38.408;-122.974;2022-08-21T05:28:12;15.52;;;6.20;;
46881;SDS011;44112;38.408;-122.974;2022-08-21T05:30:39;15.38;;;5.90;;
46881;SDS011;44112;38.408;-122.974;2022-08-21T05:33:06;13.38;;;5.88;;
46881;SDS011;44112;38.408;-122.974;2022-08-21T05:35:33;12.57;;;6.07;;
46881;SDS011;44112;38.408;-122.974;2022-08-21T05:38:01;18.25;;;7.22;;
46881;SDS011;44112;38.408;-122.974;2022-08-21T05:40:28;17.85;;;5.95;;
46881;SDS011;44112;38.408;-122.974;2022-08-21T05:42:56;14.75;;;5.95;;
46881;SDS011;44112;38.408;-122.974;2022-08-21T05:45:26;16.73;;;6.57;;
46881;SDS011;44112;38.408;-122.974;2022-08-21T05:47:58;19.05;;;7.22;;
46881;SDS011;44112;38.408;-122.974;2022-08-21T05:50:42;17.10;;;6.55;;
46881;SDS011;44112;38.408;-122.974;2022-08-21T05:53:10;24.35;;;7.85;;
46881;SDS011;44112;38.408;-122.974;2022-08-21T05:55:38;15.82;;;6.32;;
46881;SDS011;44112;38.408;-122.974;2022-08-21T05:58:06;16.90;;;6.72;;
46881;SDS011;44112;38.408;-122.974;2022-08-21T06:00:33;18.17;;;6.38;;
46881;SDS011;44112;38.408;-122.974;2022-08-21T06:02:59;18.23;;;6.85;;
46881;SDS011;44112;38.408;-122.974;2022-08-21T06:05:27;18.48;;;7.07;;
46881;SDS011;44112;38.408;-122.974;2022-08-21T06:07:53;15.38;;;6.05;;
46881;SDS011;44112;38.408;-122.974;2022-08-21T06:10:20;15.38;;;6.22;;
46881;SDS011;44112;38.408;-122.974;2022-08-21T06:12:52;14.95;;;6.28;;
46881;SDS011;44112;38.408;-122.974;2022-08-21T06:15:20;18.20;;;5.90;;
46881;SDS011;44112;38.408;-122.974;2022-08-21T06:17:47;17.73;;;6.32;;
46881;SDS011;44112;38.408;-122.974;2022-08-21T06:20:14;14.50;;;5.95;;
46881;SDS011;44112;38.408;-122.974;2022-08-21T06:22:40;14.93;;;6.22;;
46881;SDS011;44112;38.408;-122.974;2022-08-21T06:25:07;14.93;;;5.97;;
46881;SDS011;44112;38.408;-122.974;2022-08-21T06:27:34;14.07;;;5.70;;
46881;SDS011;44112;38.408;-122.974;2022-08-21T06:30:01;14.45;;;5.55;;
46881;SDS011;44112;38.408;-122.974;2022-08-21T06:32:28;15.95;;;5.72;;
46881;SDS011;44112;38.408;-122.974;2022-08-21T06:34:56;15.23;;;6.18;;
46881;SDS011;44112;38.408;-122.974;2022-08-21T06:37:22;13.90;;;5.80;;
46881;SDS011;44112;38.408;-122.974;2022-08-21T06:39:49;14.18;;;5.47;;
46881;SDS011;44112;38.408;-122.974;2022-08-21T06:42:15;12.38;;;5.35;;
46881;SDS011;44112;38.408;-122.974;2022-08-21T06:44:43;11.50;;;5.18;;
46881;SDS011;44112;38.408;-122.974;2022-08-21T06:47:09;10.43;;;4.40;;
46881;SDS011;44112;38.408;-122.974;2022-08-21T06:49:36;12.55;;;5.10;;
46881;SDS011;44112;38.408;-122.974;2022-08-21T06:52:02;9.63;;;4.57;;
46881;SDS011;44112;38.408;-122.974;2022-08-21T06:54:29;10.80;;;4.57;;
46881;SDS011;44112;38.408;-122.974;2022-08-21T06:56:57;10.95;;;5.05;;
46881;SDS011;44112;38.408;-122.974;2022-08-21T06:59:24;12.90;;;5.47;;
46881;SDS011;44112;38.408;-122.974;2022-08-21T07:01:51;11.05;;;4.93;;
46881;SDS011;44112;38.408;-122.974;2022-08-21T07:04:18;13.23;;;5.15;;
46881;SDS011;44112;38.408;-122.974;2022-08-21T07:06:45;11.80;;;4.93;;
46881;SDS011;44112;38.408;-122.974;2022-08-21T07:09:12;11.20;;;4.93;;
46881;SDS011;44112;38.408;-122.974;2022-08-21T07:11:38;11.77;;;4.53;;
46881;SDS011;44112;38.408;-122.974;2022-08-21T07:14:05;10.32;;;4.47;;
46881;SDS011;44112;38.408;-122.974;2022-08-21T07:16:31;10.48;;;4.70;;
46881;SDS011;44112;38.408;-122.974;2022-08-21T07:18:58;9.82;;;4.53;;
46881;SDS011;44112;38.408;-122.974;2022-08-21T07:21:24;9.50;;;4.20;;
46881;SDS011;44112;38.408;-122.974;2022-08-21T07:23:51;10.10;;;4.40;;
46881;SDS011;44112;38.408;-122.974;2022-08-21T07:26:20;9.82;;;4.65;;
46881;SDS011;44112;38.408;-122.974;2022-08-21T07:28:48;9.25;;;3.90;;
46881;SDS011;44112;38.408;-122.974;2022-08-21T07:31:17;9.95;;;4.30;;
46881;SDS011;44112;38.408;-122.974;2022-08-21T07:33:45;10.98;;;4.28;;
46881;SDS011;44112;38.408;-122.974;2022-08-21T07:36:12;9.77;;;4.68;;
46881;SDS011;44112;38.408;-122.974;2022-08-21T07:38:40;9.40;;;4.30;;
46881;SDS011;44112;38.408;-122.974;2022-08-21T07:41:11;9.98;;;3.83;;
46881;SDS011;44112;38.408;-122.974;2022-08-21T07:43:40;10.10;;;4.55;;
46881;SDS011;44112;38.408;-122.974;2022-08-21T07:46:08;9.07;;;4.50;;
46881;SDS011;44112;38.408;-122.974;2022-08-21T07:48:36;10.63;;;4.18;;
46881;SDS011;44112;38.408;-122.974;2022-08-21T07:51:04;9.77;;;4.25;;
46881;SDS011;44112;38.408;-122.974;2022-08-21T07:53:34;11.48;;;3.85;;
46881;SDS011;44112;38.408;-122.974;2022-08-21T07:56:04;10.75;;;3.95;;
46881;SDS011;44112;38.408;-122.974;2022-08-21T07:58:32;11.65;;;4.75;;
46881;SDS011;44112;38.408;-122.974;2022-08-21T08:00:59;9.50;;;4.10;;
46881;SDS011;44112;38.408;-122.974;2022-08-21T08:03:26;7.57;;;3.75;;
46881;SDS011;44112;38.408;-122.974;2022-08-21T08:05:53;13.18;;;4.13;;
46881;SDS011;44112;38.408;-122.974;2022-08-21T08:08:19;9.57;;;3.83;;
46881;SDS011;44112;38.408;-122.974;2022-08-21T08:10:46;8.57;;;3.90;;
46881;SDS011;44112;38.408;-122.974;2022-08-21T08:13:14;9.35;;;4.32;;
46881;SDS011;44112;38.408;-122.974;2022-08-21T08:15:43;9.30;;;3.60;;
46881;SDS011;44112;38.408;-122.974;2022-08-21T08:18:10;8.38;;;3.63;;
46881;SDS011;44112;38.408;-122.974;2022-08-21T08:20:36;7.82;;;3.28;;
46881;SDS011;44112;38.408;-122.974;2022-08-21T08:23:04;7.22;;;3.85;;
46881;SDS011;44112;38.408;-122.974;2022-08-21T08:25:31;8.10;;;3.78;;
46881;SDS011;44112;38.408;-122.974;2022-08-21T08:27:57;7.63;;;3.50;;
46881;SDS011;44112;38.408;-122.974;2022-08-21T08:30:24;7.28;;;3.90;;
46881;SDS011;44112;38.408;-122.974;2022-08-21T08:32:51;9.25;;;3.65;;
46881;SDS011;44112;38.408;-122.974;2022-08-21T08:35:18;7.95;;;3.70;;
46881;SDS011;44112;38.408;-122.974;2022-08-21T08:37:45;7.55;;;3.78;;
46881;SDS011;44112;38.408;-122.974;2022-08-21T08:40:14;8.75;;;4.22;;
46881;SDS011;44112;38.408;-122.974;2022-08-21T08:42:48;10.95;;;3.80;;
46881;SDS011;44112;38.408;-122.974;2022-08-21T08:45:19;8.73;;;3.88;;
46881;SDS011;44112;38.408;-122.974;2022-08-21T08:47:56;7.80;;;3.58;;
46881;SDS011;44112;38.408;-122.974;2022-08-21T08:50:33;9.30;;;4.15;;
46881;SDS011;44112;38.408;-122.974;2022-08-21T08:53:16;10.25;;;4.07;;
46881;SDS011;44112;38.408;-122.974;2022-08-21T08:55:47;8.80;;;4.10;;
46881;SDS011;44112;38.408;-122.974;2022-08-21T08:58:38;6.47;;;3.30;;
46881;SDS011;44112;38.408;-122.974;2022-08-21T09:01:06;9.48;;;4.03;;
46881;SDS011;44112;38.408;-122.974;2022-08-21T09:03:39;9.90;;;3.85;;
46881;SDS011;44112;38.408;-122.974;2022-08-21T09:06:18;8.90;;;3.80;;
46881;SDS011;44112;38.408;-122.974;2022-08-21T09:27:46;7.43;;;3.30;;
46881;SDS011;44112;38.408;-122.974;2022-08-21T09:30:13;8.27;;;3.10;;
46881;SDS011;44112;38.408;-122.974;2022-08-21T09:32:40;5.93;;;2.90;;
46881;SDS011;44112;38.408;-122.974;2022-08-21T09:37:55;8.13;;;3.10;;
46881;SDS011;44112;38.408;-122.974;2022-08-21T09:40:41;6.80;;;3.05;;
46881;SDS011;44112;38.408;-122.974;2022-08-21T09:45:40;8.50;;;3.13;;
46881;SDS011;44112;38.408;-122.974;2022-08-21T09:50:38;5.88;;;2.60;;
46881;SDS011;44112;38.408;-122.974;2022-08-21T09:53:14;6.40;;;3.10;;
46881;SDS011;44112;38.408;-122.974;2022-08-21T09:56:03;6.72;;;3.13;;
46881;SDS011;44112;38.408;-122.974;2022-08-21T09:59:00;6.63;;;3.22;;
46881;SDS011;44112;38.408;-122.974;2022-08-21T10:01:26;7.95;;;3.17;;
46881;SDS011;44112;38.408;-122.974;2022-08-21T10:04:09;6.07;;;3.05;;
46881;SDS011;44112;38.408;-122.974;2022-08-21T10:06:36;5.80;;;2.67;;
46881;SDS011;44112;38.408;-122.974;2022-08-21T10:09:04;6.22;;;2.80;;
46881;SDS011;44112;38.408;-122.974;2022-08-21T10:11:49;5.28;;;2.63;;
46881;SDS011;44112;38.408;-122.974;2022-08-21T10:17:04;6.00;;;2.80;;
46881;SDS011;44112;38.408;-122.974;2022-08-21T10:23:37;8.07;;;3.05;;
46881;SDS011;44112;38.408;-122.974;2022-08-21T10:28:59;5.93;;;2.80;;
46881;SDS011;44112;38.408;-122.974;2022-08-21T10:31:39;6.33;;;2.77;;
46881;SDS011;44112;38.408;-122.974;2022-08-21T10:50:31;5.30;;;2.70;;
46881;SDS011;44112;38.408;-122.974;2022-08-21T10:53:29;6.53;;;2.97;;
46881;SDS011;44112;38.408;-122.974;2022-08-21T11:09:54;8.02;;;3.10;;
46881;SDS011;44112;38.408;-122.974;2022-08-21T11:12:33;8.55;;;3.65;;
46881;SDS011;44112;38.408;-122.974;2022-08-21T11:15:11;10.45;;;3.53;;
46881;SDS011;44112;38.408;-122.974;2022-08-21T11:20:46;5.72;;;2.90;;
46881;SDS011;44112;38.408;-122.974;2022-08-21T11:29:14;7.03;;;3.30;;
46881;SDS011;44112;38.408;-122.974;2022-08-21T11:32:06;7.03;;;3.40;;
46881;SDS011;44112;38.408;-122.974;2022-08-21T11:45:54;6.05;;;3.15;;
46881;SDS011;44112;38.408;-122.974;2022-08-21T11:51:26;5.88;;;2.78;;
46881;SDS011;44112;38.408;-122.974;2022-08-21T11:57:30;7.25;;;3.20;;
46881;SDS011;44112;38.408;-122.974;2022-08-21T12:00:05;5.70;;;2.83;;
46881;SDS011;44112;38.408;-122.974;2022-08-21T12:02:37;6.70;;;3.00;;
46881;SDS011;44112;38.408;-122.974;2022-08-21T12:05:23;6.47;;;3.25;;
46881;SDS011;44112;38.408;-122.974;2022-08-21T12:13:35;5.57;;;2.92;;
46881;SDS011;44112;38.408;-122.974;2022-08-21T12:16:08;5.93;;;3.10;;
46881;SDS011;44112;38.408;-122.974;2022-08-21T12:18:40;7.60;;;2.92;;
46881;SDS011;44112;38.408;-122.974;2022-08-21T12:21:19;6.75;;;3.20;;
46881;SDS011;44112;38.408;-122.974;2022-08-21T12:23:48;5.97;;;3.08;;
46881;SDS011;44112;38.408;-122.974;2022-08-21T12:26:46;8.45;;;3.72;;
46881;SDS011;44112;38.408;-122.974;2022-08-21T12:29:48;6.43;;;2.95;;
46881;SDS011;44112;38.408;-122.974;2022-08-21T12:34:48;6.07;;;3.15;;
46881;SDS011;44112;38.408;-122.974;2022-08-21T12:37:39;7.53;;;3.55;;
46881;SDS011;44112;38.408;-122.974;2022-08-21T12:42:38;6.13;;;3.03;;
46881;SDS011;44112;38.408;-122.974;2022-08-21T12:45:51;7.78;;;3.47;;
46881;SDS011;44112;38.408;-122.974;2022-08-21T12:48:07;5.95;;;3.28;;
46881;SDS011;44112;38.408;-122.974;2022-08-21T12:50:54;6.80;;;3.25;;
46881;SDS011;44112;38.408;-122.974;2022-08-21T12:53:37;6.63;;;3.25;;
46881;SDS011;44112;38.408;-122.974;2022-08-21T12:56:12;6.20;;;3.20;;
46881;SDS011;44112;38.408;-122.974;2022-08-21T12:58:46;7.78;;;3.22;;
46881;SDS011;44112;38.408;-122.974;2022-08-21T13:04:01;6.53;;;3.20;;
46881;SDS011;44112;38.408;-122.974;2022-08-21T13:06:42;6.53;;;3.17;;
46881;SDS011;44112;38.408;-122.974;2022-08-21T13:09:12;6.00;;;3.25;;
46881;SDS011;44112;38.408;-122.974;2022-08-21T13:11:43;7.25;;;3.65;;
46881;SDS011;44112;38.408;-122.974;2022-08-21T13:17:07;7.45;;;3.42;;
46881;SDS011;44112;38.408;-122.974;2022-08-21T13:19:35;7.13;;;3.28;;
46881;SDS011;44112;38.408;-122.974;2022-08-21T13:22:02;7.65;;;3.47;;
46881;SDS011;44112;38.408;-122.974;2022-08-21T13:24:31;8.15;;;3.95;;
46881;SDS011;44112;38.408;-122.974;2022-08-21T13:26:59;6.35;;;3.38;;
46881;SDS011;44112;38.408;-122.974;2022-08-21T13:29:30;7.80;;;3.50;;
46881;SDS011;44112;38.408;-122.974;2022-08-21T13:32:03;7.72;;;3.97;;
46881;SDS011;44112;38.408;-122.974;2022-08-21T13:34:36;7.15;;;3.50;;
46881;SDS011;44112;38.408;-122.974;2022-08-21T13:37:04;8.63;;;3.92;;
46881;SDS011;44112;38.408;-122.974;2022-08-21T13:39:34;6.55;;;3.55;;
46881;SDS011;44112;38.408;-122.974;2022-08-21T13:42:01;7.75;;;3.58;;
46881;SDS011;44112;38.408;-122.974;2022-08-21T13:44:34;7.28;;;3.65;;
46881;SDS011;44112;38.408;-122.974;2022-08-21T13:47:03;6.72;;;3.40;;
46881;SDS011;44112;38.408;-122.974;2022-08-21T13:49:35;7.82;;;4.03;;
46881;SDS011;44112;38.408;-122.974;2022-08-21T13:52:05;7.33;;;3.70;;
46881;SDS011;44112;38.408;-122.974;2022-08-21T13:54:41;8.25;;;3.92;;
46881;SDS011;44112;38.408;-122.974;2022-08-21T13:57:17;7.38;;;4.03;;
46881;SDS011;44112;38.408;-122.974;2022-08-21T13:59:45;7.22;;;3.33;;
46881;SDS011;44112;38.408;-122.974;2022-08-21T14:02:15;7.13;;;3.40;;
46881;SDS011;44112;38.408;-122.974;2022-08-21T14:04:52;7.68;;;3.80;;
46881;SDS011;44112;38.408;-122.974;2022-08-21T14:07:44;9.85;;;3.55;;
46881;SDS011;44112;38.408;-122.974;2022-08-21T14:10:15;7.55;;;3.58;;
46881;SDS011;44112;38.408;-122.974;2022-08-21T14:12:51;8.50;;;3.83;;
46881;SDS011;44112;38.408;-122.974;2022-08-21T14:15:24;6.97;;;3.65;;
46881;SDS011;44112;38.408;-122.974;2022-08-21T14:17:55;8.23;;;3.63;;
46881;SDS011;44112;38.408;-122.974;2022-08-21T14:20:44;7.47;;;3.40;;
46881;SDS011;44112;38.408;-122.974;2022-08-21T14:23:22;7.45;;;3.40;;
46881;SDS011;44112;38.408;-122.974;2022-08-21T14:25:50;8.55;;;3.72;;
46881;SDS011;44112;38.408;-122.974;2022-08-21T14:28:20;7.35;;;3.70;;
46881;SDS011;44112;38.408;-122.974;2022-08-21T14:30:50;7.53;;;3.60;;
46881;SDS011;44112;38.408;-122.974;2022-08-21T14:33:20;8.40;;;3.50;;
46881;SDS011;44112;38.408;-122.974;2022-08-21T14:35:52;7.75;;;3.22;;
46881;SDS011;44112;38.408;-122.974;2022-08-21T14:38:20;6.95;;;3.70;;
46881;SDS011;44112;38.408;-122.974;2022-08-21T14:40:51;7.05;;;3.35;;
46881;SDS011;44112;38.408;-122.974;2022-08-21T14:43:19;7.22;;;3.50;;
46881;SDS011;44112;38.408;-122.974;2022-08-21T14:45:46;6.82;;;3.55;;
46881;SDS011;44112;38.408;-122.974;2022-08-21T14:48:14;7.20;;;3.35;;
46881;SDS011;44112;38.408;-122.974;2022-08-21T14:50:41;8.00;;;3.50;;
46881;SDS011;44112;38.408;-122.974;2022-08-21T14:53:09;7.05;;;3.70;;
46881;SDS011;44112;38.408;-122.974;2022-08-21T14:55:36;8.07;;;3.42;;
46881;SDS011;44112;38.408;-122.974;2022-08-21T14:58:22;8.40;;;3.35;;
46881;SDS011;44112;38.408;-122.974;2022-08-21T15:00:50;7.35;;;3.60;;
46881;SDS011;44112;38.408;-122.974;2022-08-21T15:03:19;6.32;;;3.35;;
46881;SDS011;44112;38.408;-122.974;2022-08-21T15:05:49;9.02;;;3.97;;
46881;SDS011;44112;38.408;-122.974;2022-08-21T15:08:17;6.35;;;3.40;;
46881;SDS011;44112;38.408;-122.974;2022-08-21T15:10:44;6.50;;;3.20;;
46881;SDS011;44112;38.408;-122.974;2022-08-21T15:13:11;7.97;;;4.05;;
46881;SDS011;44112;38.408;-122.974;2022-08-21T15:15:40;7.70;;;3.85;;
46881;SDS011;44112;38.408;-122.974;2022-08-21T15:18:08;8.00;;;3.88;;
46881;SDS011;44112;38.408;-122.974;2022-08-21T15:20:35;8.18;;;3.65;;
46881;SDS011;44112;38.408;-122.974;2022-08-21T15:23:04;10.20;;;4.43;;
46881;SDS011;44112;38.408;-122.974;2022-08-21T15:25:31;9.35;;;4.07;;
46881;SDS011;44112;38.408;-122.974;2022-08-21T15:27:58;8.30;;;3.85;;
46881;SDS011;44112;38.408;-122.974;2022-08-21T15:30:26;7.82;;;3.80;;
46881;SDS011;44112;38.408;-122.974;2022-08-21T15:32:55;8.77;;;4.10;;
46881;SDS011;44112;38.408;-122.974;2022-08-21T15:35:23;7.88;;;3.80;;
46881;SDS011;44112;38.408;-122.974;2022-08-21T15:37:50;7.75;;;3.55;;
46881;SDS011;44112;38.408;-122.974;2022-08-21T15:40:16;7.53;;;3.47;;
46881;SDS011;44112;38.408;-122.974;2022-08-21T15:42:43;6.65;;;3.80;;
46881;SDS011;44112;38.408;-122.974;2022-08-21T15:45:12;8.73;;;4.30;;
46881;SDS011;44112;38.408;-122.974;2022-08-21T15:47:42;9.73;;;4.15;;
46881;SDS011;44112;38.408;-122.974;2022-08-21T15:50:10;13.40;;;4.40;;
46881;SDS011;44112;38.408;-122.974;2022-08-21T15:52:38;10.48;;;4.43;;
46881;SDS011;44112;38.408;-122.974;2022-08-21T15:55:06;12.80;;;6.03;;
46881;SDS011;44112;38.408;-122.974;2022-08-21T15:57:34;17.33;;;6.35;;
46881;SDS011;44112;38.408;-122.974;2022-08-21T16:00:07;13.82;;;4.88;;
46881;SDS011;44112;38.408;-122.974;2022-08-21T16:02:41;11.55;;;5.35;;
46881;SDS011;44112;38.408;-122.974;2022-08-21T16:05:10;10.98;;;4.93;;
46881;SDS011;44112;38.408;-122.974;2022-08-21T16:07:38;11.15;;;4.35;;
46881;SDS011;44112;38.408;-122.974;2022-08-21T16:10:05;9.95;;;4.20;;
46881;SDS011;44112;38.408;-122.974;2022-08-21T16:12:34;13.55;;;4.88;;
46881;SDS011;44112;38.408;-122.974;2022-08-21T16:15:06;11.13;;;4.22;;